×

Your IP address is exposed


For your safety download links have been disabled for users without a VPN.
Download anonymously with the #1 trusted VPN

Get VPN here

  1.  
  2. Porn > Other Adult Magazines Collection - July 25 2021 2021-07-25  Trusted 759.98 MB9 28  spy1984
  3. Porn > Other Mens World - Vol.23 No.11 2021-07-24  Trusted 89.81 MB24 spy1984
  4. Porn > Other Gallery - November 2011 2021-07-24  Trusted 82.93 MB0 spy1984
  5. Porn > Other 18 Eighteen May 2010 2021-07-24  Trusted 40.74 MB13 spy1984
  6. Porn > Other 18 Eighteen - April 2010 2021-07-24  Trusted 38.22 MB13 spy1984
  7. Other > E-books Assorted Books Collection - July 24 2021 2021-07-24  Trusted 416.16 MB65 42  spy1984
  8. Porn > Other Celebrity Skin 174 - March 2008 2021-07-24  Trusted 16.11 MB17 spy1984
  9. Other > E-books 20 For Dummies Series Books Collection Pack-54 2021-07-24  Trusted 277.34 MB102 53  spy1984
  10. Other > E-books 50 Assorted Magazines - July 24 2021 2021-07-24  Trusted 2.73 GB105 98  spy1984
  11. Porn > Other Celebrity Skin 175 - April 2008 2021-07-24  Trusted 15.76 MB21 spy1984
  12. Porn > Other Amateur Booty Issue 33 2011 2021-07-24  Trusted 33.56 MB16 spy1984
  13. Porn > Other Erotica Magazine - Vol 7 Lena Cover 2021-07-24  Trusted 23.83 MB13 spy1984
  14. Porn > Other 18 Babes - Issue 046 2009 2021-07-23  Trusted 47.51 MB6 spy1984
  15. Other > E-books Notion Magazine – Issue 89 – Spring 2021 2021-07-23  Trusted 93.95 MB6 spy1984
  16. Other > E-books Newsweek USA – July 16, 2021 2021-07-23  Trusted 39.24 MB8 spy1984
  17. Other > E-books New Homes & Ideas – Summer 2021 2021-07-23  Trusted 13.49 MB14 spy1984
  18. Other > E-books My Mobile – July 2021 2021-07-23  Trusted 94.12 MB4 spy1984
  19. Other > E-books Modellenland Magazine – July 2021 2021-07-23  Trusted 117.06 MB5 spy1984
  20. Other > E-books Medgate Today – July 2021 2021-07-23  Trusted 16.17 MB4 spy1984
  21. Other > E-books Match! – July 13, 2021 2021-07-23  Trusted 41.13 MB1 spy1984
  22. Other > E-books Love TV – 10 July 2021 2021-07-23  Trusted 65.92 MB3 spy1984
  23. Other > E-books Love Embroidery – 14 July 2021 2021-07-23  Trusted 98.94 MB4 spy1984
  24. Other > E-books Linux Magazine Special Editions – 09 July 2021 2021-07-23  Trusted 78.25 MB12 spy1984
  25. Other > E-books Kansas City Homes & Style – July-August 2021 2021-07-23  Trusted 392.22 MB2 spy1984
  26. Other > E-books Irish Farmers Monthly – July 2021 2021-07-23  Trusted 61.72 MB5 spy1984
  27. Other > E-books House & Lifestyle – July 2021 2021-07-23  Trusted 30.73 MB6 spy1984
  28. Other > E-books Financial Times Magazine – July 10, 2021 2021-07-23  Trusted 13.08 MB7 spy1984
  29. Other > E-books evo India – 10 July 2021 2021-07-23  Trusted 140.59 MB0 spy1984
  30. Other > E-books Computer Music – September 2021 2021-07-23  Trusted 73.84 MB11 spy1984
  31. Other > E-books Chic – 10 July 2021 2021-07-23  Trusted 35.07 MB5 spy1984
  32. Other > E-books Building Innovations – July 2021 2021-07-23  Trusted 56.61 MB8 spy1984
  33. Other > E-books Antique Doll Collector – June 2021 2021-07-23  Trusted 34.62 MB6 spy1984
  34. Other > E-books Angling Times – 13 July 2021 2021-07-23  Trusted 54.42 MB4 spy1984
  35. Porn > Other 30+40 - Issue 28 2010 2021-07-23  Trusted 23.07 MB2 spy1984
  36. Porn > Other 18 Babes - Issue 045 2009 2021-07-23  Trusted 26.84 MB4 spy1984
  37. Porn > Other 500 Uncensored Sex Acts - July 2006 2021-07-23  Trusted 43.72 MB20 spy1984
  38. Other > E-books The Eisenstein Universe By Ian Christie and Julia Vassilieva 2021-07-22  Trusted 5.20 MB16 spy1984
  39. Other > E-books Super bass flies - how to tie and fish the most effective imitat 2021-07-22  Trusted 105.78 MB7 spy1984
  40. Other > E-books Forgetting - The Benefits of Not Remembering 2021-07-22  Trusted 4.24 MB11 spy1984
  41. Other > E-books Experiencing Cinema - Participatory Film Cultures, Immersive Med 2021-07-22  Trusted 1.48 MB7 spy1984
  42. Other > E-books Ethics and Insurrection - A Pragmatism for the Oppressed 2021-07-22  Trusted 4.17 MB14 spy1984
  43. Other > E-books Ethics after Wittgenstein - Contemplation and Critique 2021-07-22  Trusted 1.43 MB12 spy1984
  44. Other > E-books Certainty in Action - Wittgenstein on Language, Mind and Epistem 2021-07-22  Trusted 2.00 MB7 spy1984
  45. Other > E-books What's on TV – 10 July 2021 2021-07-22  Trusted 69.77 MB4 spy1984
  46. Other > E-books Wellspring – July 2021 2021-07-22  Trusted 26.82 MB3 spy1984
  47. Other > E-books Wargames, Soldiers & Strategy – July 2021 2021-07-22  Trusted 53.66 MB7 spy1984
  48. Other > E-books VWt Magazine – August 2021 2021-07-22  Trusted 79.82 MB2 spy1984
  49. Other > E-books Voice & Data – July 2021 2021-07-22  Trusted 84.62 MB7 spy1984
  50. Other > E-books Vocable All English – 8 Juillet 2021 2021-07-22  Trusted 20.77 MB2 spy1984
  51. Other > E-books Vintage Collector – August-September 2021 2021-07-22  Trusted 29.93 MB2 spy1984